createdAt,value
2022-09-12T00:01:38.749Z,101116.20
2022-09-12T00:04:09.100Z,101115.65
2022-09-12T00:06:39.774Z,101114.14
2022-09-12T00:09:12.966Z,101113.77
2022-09-12T00:11:45.800Z,101111.37
2022-09-12T00:14:18.344Z,101106.73
2022-09-12T00:16:48.688Z,101102.73
2022-09-12T00:19:19.058Z,101100.16
2022-09-12T00:21:49.173Z,101103.74
2022-09-12T00:24:19.458Z,101101.48
2022-09-12T00:26:49.623Z,101102.17
2022-09-12T00:29:23.118Z,101102.05
2022-09-12T00:31:53.438Z,101103.71
2022-09-12T00:34:23.656Z,101100.38
2022-09-12T00:36:53.871Z,101096.74
2022-09-12T00:39:23.973Z,101095.85
2022-09-12T00:41:54.629Z,101094.55
2022-09-12T00:44:45.211Z,101090.41
2022-09-12T00:47:20.553Z,101085.36
2022-09-12T00:49:55.416Z,101086.10
2022-09-12T00:52:30.898Z,101088.44
2022-09-12T00:55:06.878Z,101086.27
2022-09-12T00:57:41.801Z,101086.86
2022-09-12T01:00:16.242Z,101090.41
2022-09-12T01:02:51.554Z,101083.59
2022-09-12T01:05:22.384Z,101084.23
2022-09-12T01:07:53.430Z,101085.58
2022-09-12T01:10:24.753Z,101082.89
2022-09-12T01:12:54.893Z,101084.06
2022-09-12T01:15:25.019Z,101082.63
2022-09-12T01:18:10.722Z,101081.40
2022-09-12T01:21:03.238Z,101077.15
2022-09-12T01:24:16.525Z,101076.55
2022-09-12T01:27:02.072Z,101078.63
2022-09-12T01:29:56.659Z,101075.00
2022-09-12T01:32:36.810Z,101072.16
2022-09-12T01:35:21.130Z,101073.74
2022-09-12T01:38:03.152Z,101072.35
2022-09-12T01:40:41.022Z,101076.30
2022-09-12T01:43:16.069Z,101075.13
2022-09-12T01:45:54.144Z,101071.41
2022-09-12T01:48:29.562Z,101067.81
2022-09-12T01:51:05.480Z,101066.45
2022-09-12T01:53:41.635Z,101062.19
2022-09-12T01:56:16.575Z,101060.89
2022-09-12T01:58:51.129Z,101056.95
2022-09-12T02:01:26.187Z,101055.40
2022-09-12T02:04:03.974Z,101056.45
2022-09-12T02:06:37.656Z,101054.64
2022-09-12T02:09:13.427Z,101054.02
2022-09-12T02:11:45.978Z,101053.08
2022-09-12T02:14:20.219Z,101054.30
2022-09-12T02:16:55.557Z,101053.59
2022-09-12T02:19:29.579Z,101051.86
2022-09-12T02:22:02.776Z,101050.59
2022-09-12T02:24:43.737Z,101045.69
2022-09-12T02:27:17.658Z,101045.23
2022-09-12T02:29:48.432Z,101045.98
2022-09-12T02:32:30.709Z,101046.50
2022-09-12T02:35:07.339Z,101045.27
2022-09-12T02:37:50.716Z,101042.36
2022-09-12T02:40:21.081Z,101040.48
2022-09-12T02:42:51.522Z,101037.98
2022-09-12T02:45:23.222Z,101036.17
2022-09-12T02:47:59.459Z,101036.58
2022-09-12T02:50:30.617Z,101033.30
2022-09-12T02:53:04.818Z,101033.41
2022-09-12T02:55:36.608Z,101034.64
2022-09-12T02:58:09.932Z,101034.10
2022-09-12T03:00:49.421Z,101030.67
2022-09-12T03:03:43.321Z,101027.60
2022-09-12T03:06:22.710Z,101024.91
2022-09-12T03:09:06.153Z,101026.20
2022-09-12T03:12:02.903Z,101025.77
2022-09-12T03:14:46.783Z,101027.40
2022-09-12T03:17:26.489Z,101027.61
2022-09-12T03:20:04.158Z,101029.68
2022-09-12T03:22:43.448Z,101030.18
2022-09-12T03:25:19.294Z,101028.58
2022-09-12T03:27:59.642Z,101026.89
2022-09-12T03:30:30.164Z,101023.81
2022-09-12T03:33:00.321Z,101024.63
2022-09-12T03:35:30.812Z,101025.05
2022-09-12T03:38:00.981Z,101026.94
2022-09-12T03:40:31.181Z,101024.11
2022-09-12T03:43:01.691Z,101028.75
2022-09-12T03:45:32.378Z,101027.40
2022-09-12T03:48:02.814Z,101028.90
2022-09-12T03:50:33.853Z,101023.16
2022-09-12T03:53:04.610Z,101023.75
2022-09-12T03:55:34.754Z,101027.83
2022-09-12T03:58:04.866Z,101026.27
2022-09-12T04:00:35.046Z,101023.90
2022-09-12T04:03:05.413Z,101024.74
2022-09-12T04:05:36.574Z,101031.41
2022-09-12T04:08:07.061Z,101028.27
2022-09-12T04:10:37.232Z,101031.73
2022-09-12T04:13:07.634Z,101033.25
2022-09-12T04:15:38.089Z,101032.52
2022-09-12T04:18:08.277Z,101031.89
2022-09-12T04:20:38.485Z,101029.10
2022-09-12T04:23:08.584Z,101030.91
2022-09-12T04:25:39.053Z,101031.75
2022-09-12T04:28:09.811Z,101030.02
2022-09-12T04:30:40.344Z,101032.80
2022-09-12T04:33:10.516Z,101039.20
2022-09-12T04:35:41.611Z,101038.05
2022-09-12T04:38:12.407Z,101036.54
2022-09-12T04:40:42.798Z,101033.96
2022-09-12T04:43:14.641Z,101039.09
2022-09-12T04:45:45.007Z,101038.17
2022-09-12T04:48:15.209Z,101037.25
2022-09-12T04:50:45.371Z,101038.22
2022-09-12T04:53:15.480Z,101044.28
2022-09-12T04:55:46.166Z,101040.65
2022-09-12T04:58:16.283Z,101037.49
2022-09-12T05:00:46.818Z,101037.95
2022-09-12T05:03:16.940Z,101037.66
2022-09-12T05:05:47.125Z,101037.38
2022-09-12T05:08:17.691Z,101036.83
2022-09-12T05:10:48.210Z,101036.84
2022-09-12T05:13:18.869Z,101043.36
2022-09-12T05:15:57.613Z,101042.40
2022-09-12T05:18:28.841Z,101048.38
2022-09-12T05:21:02.317Z,101047.29
2022-09-12T05:23:33.727Z,101042.40
2022-09-12T05:26:05.174Z,101042.78
2022-09-12T05:28:38.275Z,101044.52
2022-09-12T05:31:11.455Z,101041.58
2022-09-12T05:33:45.105Z,101049.13
2022-09-12T05:36:17.693Z,101052.91
2022-09-12T05:38:48.622Z,101053.95
2022-09-12T05:41:24.854Z,101054.27
2022-09-12T05:43:57.202Z,101052.44
2022-09-12T05:46:29.266Z,101054.39
2022-09-12T05:49:03.170Z,101051.39
2022-09-12T05:51:35.863Z,101056.69
2022-09-12T05:54:08.779Z,101057.00
2022-09-12T05:56:42.039Z,101056.71
2022-09-12T05:59:14.667Z,101055.84
2022-09-12T06:01:45.526Z,101063.11
2022-09-12T06:04:15.921Z,101063.20
2022-09-12T06:06:46.997Z,101069.15
2022-09-12T06:09:18.487Z,101066.48
2022-09-12T06:11:48.920Z,101064.73
2022-09-12T06:14:19.485Z,101063.16
2022-09-12T06:16:50.475Z,101062.21
2022-09-12T06:19:23.152Z,101060.69
2022-09-12T06:21:53.810Z,101062.83
2022-09-12T06:24:24.222Z,101063.23
2022-09-12T06:26:54.708Z,101061.15
2022-09-12T06:29:25.840Z,101060.48
2022-09-12T06:31:56.354Z,101057.95
2022-09-12T06:34:27.740Z,101059.67
2022-09-12T06:36:58.052Z,101054.85
2022-09-12T06:39:28.225Z,101052.35
2022-09-12T06:41:58.322Z,101048.88
2022-09-12T06:44:29.678Z,101046.83
2022-09-12T06:46:59.774Z,101048.05
2022-09-12T06:49:30.982Z,101050.15
2022-09-12T06:52:01.548Z,101046.50
2022-09-12T06:54:31.653Z,101041.29
2022-09-12T06:57:02.356Z,101036.71
2022-09-12T06:59:32.796Z,101037.92
2022-09-12T07:02:02.967Z,101039.39
2022-09-12T07:04:36.721Z,101040.33
2022-09-12T07:07:06.860Z,101045.08
2022-09-12T07:09:36.952Z,101044.48
2022-09-12T07:12:08.198Z,101050.30
2022-09-12T07:14:38.318Z,101048.98
2022-09-12T07:17:09.545Z,101047.48
2022-09-12T07:19:39.682Z,101054.23
2022-09-12T07:22:09.770Z,101053.81
2022-09-12T07:24:41.162Z,101048.84
2022-09-12T07:27:11.256Z,101049.14
2022-09-12T07:29:41.378Z,101050.08
2022-09-12T07:32:12.128Z,101049.30
2022-09-12T07:34:42.533Z,101054.06
2022-09-12T07:37:12.647Z,101051.81
2022-09-12T07:39:43.288Z,101056.23
2022-09-12T07:42:13.617Z,101054.60
2022-09-12T07:44:44.469Z,101053.65
2022-09-12T07:47:14.594Z,101053.77
2022-09-12T07:49:45.022Z,101056.40
2022-09-12T07:52:15.146Z,101052.48
2022-09-12T07:54:45.400Z,101051.48
2022-09-12T07:57:15.705Z,101049.39
2022-09-12T07:59:52.930Z,101046.27
2022-09-12T08:02:22.066Z,101052.48
2022-09-12T08:04:52.903Z,101053.95
2022-09-12T08:07:23.740Z,101051.20
2022-09-12T08:09:54.533Z,101052.75
2022-09-12T08:12:24.665Z,101054.30
2022-09-12T08:14:55.125Z,101056.30
2022-09-12T08:17:25.244Z,101058.98
2022-09-12T08:19:56.038Z,101058.70
2022-09-12T08:22:26.450Z,101061.30
2022-09-12T08:24:57.043Z,101059.77
2022-09-12T08:27:27.139Z,101060.80
2022-09-12T08:29:57.595Z,101062.14
2022-09-12T08:32:27.689Z,101060.14
2022-09-12T08:34:58.301Z,101056.98
2022-09-12T08:37:30.547Z,101060.13
2022-09-12T08:40:00.730Z,101057.98
2022-09-12T08:42:43.186Z,101055.64
2022-09-12T08:45:22.500Z,101047.29
2022-09-12T08:47:53.251Z,101051.70
2022-09-12T08:50:25.031Z,101048.23
2022-09-12T08:52:59.825Z,101048.02
2022-09-12T08:55:42.229Z,101048.59
2022-09-12T08:58:17.800Z,101048.77
2022-09-12T09:00:59.656Z,101051.31
2022-09-12T09:04:05.694Z,101050.83
2022-09-12T09:06:52.785Z,101051.16
2022-09-12T09:09:32.738Z,101046.38
2022-09-12T09:12:16.878Z,101043.65
2022-09-12T09:15:01.176Z,101041.36
2022-09-12T09:17:38.600Z,101038.90
2022-09-12T09:20:22.308Z,101033.86
2022-09-12T09:22:56.805Z,101029.71
2022-09-12T09:25:35.599Z,101029.53
2022-09-12T09:28:13.607Z,101026.48
2022-09-12T09:30:45.778Z,101025.72
2022-09-12T09:33:23.402Z,101022.52
2022-09-12T09:35:56.625Z,101016.08
2022-09-12T09:38:36.018Z,101012.19
2022-09-12T09:41:30.307Z,101011.14
2022-09-12T09:44:02.799Z,101011.80
2022-09-12T09:46:33.465Z,101009.78
2022-09-12T09:49:05.562Z,101008.36
2022-09-12T09:51:39.597Z,101008.19
2022-09-12T09:54:19.235Z,101005.48
2022-09-12T09:56:49.949Z,101004.05
2022-09-12T09:59:26.622Z,101004.23
2022-09-12T10:02:03.428Z,100998.45
2022-09-12T10:04:40.546Z,100992.77
2022-09-12T10:07:21.680Z,100987.63
2022-09-12T10:10:15.426Z,100985.80
2022-09-12T10:12:46.166Z,100979.55
2022-09-12T10:15:22.251Z,100978.97
2022-09-12T10:17:54.852Z,100975.35
2022-09-12T10:20:38.624Z,100978.45
2022-09-12T10:23:31.129Z,100979.70
2022-09-12T10:26:03.771Z,100979.62
2022-09-12T10:28:39.393Z,100979.65
2022-09-12T10:31:11.640Z,100982.65
2022-09-12T10:33:47.431Z,100982.35
2022-09-12T10:36:18.275Z,100978.27
2022-09-12T10:38:54.973Z,100981.89
2022-09-12T10:41:26.070Z,100980.27
2022-09-12T10:44:10.105Z,100982.90
2022-09-12T10:46:40.473Z,100978.11
2022-09-12T10:49:24.755Z,100975.48
2022-09-12T10:51:56.591Z,100969.14
2022-09-12T10:54:29.527Z,100963.77
2022-09-12T10:57:25.009Z,100962.30
2022-09-12T11:00:08.767Z,100960.38
2022-09-12T11:02:59.302Z,100957.35
2022-09-12T11:05:48.585Z,100953.63
2022-09-12T11:08:37.256Z,100948.95
2022-09-12T11:11:15.159Z,100942.70
2022-09-12T11:14:01.002Z,100934.16
2022-09-12T11:16:42.110Z,100934.59
2022-09-12T11:19:38.575Z,100935.15
2022-09-12T11:22:28.668Z,100931.00
2022-09-12T11:25:14.783Z,100929.58
2022-09-12T11:28:07.370Z,100926.16
2022-09-12T11:30:48.374Z,100930.14
2022-09-12T11:33:42.291Z,100931.09
2022-09-12T11:36:24.879Z,100929.48
2022-09-12T11:39:03.166Z,100929.81
2022-09-12T11:41:37.249Z,100928.59
2022-09-12T11:44:16.860Z,100927.05
2022-09-12T11:46:51.533Z,100925.49
2022-09-12T11:49:35.253Z,100923.73
2022-09-12T11:52:12.591Z,100923.11
2022-09-12T11:54:52.810Z,100920.17
2022-09-12T11:57:31.942Z,100919.90
2022-09-12T12:00:07.767Z,100919.02
2022-09-12T12:02:45.552Z,100918.35
2022-09-12T12:05:24.838Z,100918.30
2022-09-12T12:07:57.201Z,100916.30
2022-09-12T12:10:34.606Z,100916.15
2022-09-12T12:13:05.206Z,100917.77
2022-09-12T12:15:38.500Z,100913.05
2022-09-12T12:18:17.854Z,100916.56
2022-09-12T12:20:48.898Z,100912.52
2022-09-12T12:23:31.351Z,100909.87
2022-09-12T12:26:03.177Z,100909.73
2022-09-12T12:29:02.288Z,100909.77
2022-09-12T12:31:32.569Z,100908.38
2022-09-12T12:34:28.328Z,100903.05
2022-09-12T12:37:00.185Z,100901.02
2022-09-12T12:40:01.320Z,100896.70
2022-09-12T12:43:04.981Z,100892.84
2022-09-12T12:46:09.213Z,100889.01
2022-09-12T12:48:53.597Z,100886.54
2022-09-12T12:51:57.110Z,100885.04
2022-09-12T12:54:51.902Z,100881.86
2022-09-12T12:57:47.194Z,100878.09
2022-09-12T13:00:36.377Z,100875.92
2022-09-12T13:03:23.585Z,100875.38
2022-09-12T13:05:55.666Z,100874.66
2022-09-12T13:08:33.693Z,100872.48
2022-09-12T13:11:08.443Z,100868.70
2022-09-12T13:13:44.986Z,100865.42
2022-09-12T13:16:32.242Z,100859.40
2022-09-12T13:19:07.278Z,100857.98
2022-09-12T13:21:38.286Z,100856.98
2022-09-12T13:24:18.590Z,100859.45
2022-09-12T13:26:50.822Z,100856.38
2022-09-12T13:29:23.171Z,100853.09
2022-09-12T13:31:56.978Z,100849.08
2022-09-12T13:34:30.439Z,100843.16
2022-09-12T13:37:36.428Z,100838.27
2022-09-12T13:40:34.856Z,100833.98
2022-09-12T13:43:16.814Z,100830.98
2022-09-12T13:45:48.522Z,100832.65
2022-09-12T13:48:23.231Z,100835.77
2022-09-12T13:50:55.836Z,100832.48
2022-09-12T13:53:32.223Z,100827.36
2022-09-12T13:56:03.716Z,100824.41
2022-09-12T13:58:35.934Z,100820.46
2022-09-12T14:01:13.311Z,100816.23
2022-09-12T14:04:01.020Z,100809.05
2022-09-12T14:06:35.919Z,100811.33
2022-09-12T14:09:16.114Z,100803.48
2022-09-12T14:11:46.280Z,100801.98
2022-09-12T14:14:29.343Z,100800.20
2022-09-12T14:17:00.138Z,100792.28
2022-09-12T14:19:32.194Z,100790.28
2022-09-12T14:22:02.823Z,100789.45
2022-09-12T14:24:34.338Z,100786.00
2022-09-12T14:27:05.547Z,100787.45
2022-09-12T14:29:35.984Z,100785.34
2022-09-12T14:32:16.232Z,100780.66
2022-09-12T14:35:06.488Z,100779.14
2022-09-12T14:37:36.719Z,100774.35
2022-09-12T14:40:19.832Z,100771.73
2022-09-12T14:42:51.540Z,100773.14
2022-09-12T14:45:29.940Z,100770.85
2022-09-12T14:48:00.942Z,100766.23
2022-09-12T14:50:36.573Z,100763.23
2022-09-12T14:53:08.868Z,100765.58
2022-09-12T14:55:46.444Z,100764.02
2022-09-12T14:58:26.629Z,100766.14
2022-09-12T15:01:00.605Z,100760.58
2022-09-12T15:03:34.711Z,100756.85
2022-09-12T15:06:07.955Z,100753.45
2022-09-12T15:08:38.151Z,100750.89
2022-09-12T15:11:08.954Z,100747.40
2022-09-12T15:13:43.175Z,100744.35
2022-09-12T15:16:14.142Z,100745.17
2022-09-12T15:18:44.328Z,100744.45
2022-09-12T15:21:20.063Z,100746.19
2022-09-12T15:23:51.706Z,100745.90
2022-09-12T15:26:24.087Z,100741.84
2022-09-12T15:28:54.583Z,100743.17
2022-09-12T15:31:27.944Z,100743.35
2022-09-12T15:33:59.731Z,100739.17
2022-09-12T15:36:30.733Z,100741.12
2022-09-12T15:39:00.907Z,100736.95
2022-09-12T15:41:35.543Z,100737.78
2022-09-12T15:44:07.958Z,100737.28
2022-09-12T15:46:38.542Z,100734.49
2022-09-12T15:49:09.205Z,100732.38
2022-09-12T15:51:40.282Z,100731.10
2022-09-12T15:54:14.836Z,100723.33
2022-09-12T15:56:44.974Z,100716.81
2022-09-12T15:59:15.101Z,100719.05
2022-09-12T16:01:45.225Z,100715.71
2022-09-12T16:04:23.809Z,100717.81
2022-09-12T16:06:55.664Z,100719.77
2022-09-12T16:09:26.233Z,100718.37
2022-09-12T16:11:56.870Z,100706.75
2022-09-12T16:14:27.481Z,100706.98
2022-09-12T16:16:58.309Z,100709.41
2022-09-12T16:19:28.870Z,100707.77
2022-09-12T16:21:59.570Z,100704.83
2022-09-12T16:24:30.185Z,100700.38
2022-09-12T16:27:01.408Z,100697.09
2022-09-12T16:29:31.934Z,100695.31
2022-09-12T16:32:02.812Z,100691.09
2022-09-12T16:34:33.008Z,100690.91
2022-09-12T16:37:03.721Z,100683.57
2022-09-12T16:39:34.358Z,100679.95
2022-09-12T16:42:05.140Z,100676.87
2022-09-12T16:44:35.289Z,100670.20
2022-09-12T16:47:05.572Z,100669.64
2022-09-12T16:49:35.706Z,100666.18
2022-09-12T16:52:06.218Z,100665.23
2022-09-12T16:54:36.702Z,100663.66
2022-09-12T16:57:07.265Z,100660.15
2022-09-12T16:59:37.397Z,100659.19
2022-09-12T17:02:08.001Z,100660.95
2022-09-12T17:04:38.736Z,100662.67
2022-09-12T17:07:09.998Z,100660.59
2022-09-12T17:09:40.537Z,100659.27
2022-09-12T17:12:10.785Z,100659.15
2022-09-12T17:14:41.249Z,100655.51
2022-09-12T17:17:11.774Z,100655.01
2022-09-12T17:19:43.457Z,100653.64
2022-09-12T17:22:13.935Z,100652.98
2022-09-12T17:24:44.938Z,100656.78
2022-09-12T17:27:15.099Z,100656.20
2022-09-12T17:29:45.219Z,100655.70
2022-09-12T17:32:17.562Z,100657.38
2022-09-12T17:34:47.950Z,100658.05
2022-09-12T17:37:18.295Z,100657.11
2022-09-12T17:39:49.040Z,100660.02
2022-09-12T17:42:20.145Z,100656.36
2022-09-12T17:44:50.481Z,100656.75
2022-09-12T17:47:21.374Z,100657.09
2022-09-12T17:49:56.368Z,100653.98
2022-09-12T17:52:35.710Z,100651.42
2022-09-12T17:55:06.915Z,100651.61
2022-09-12T17:57:37.415Z,100649.73
2022-09-12T18:00:14.302Z,100650.27
2022-09-12T18:02:46.651Z,100646.13
2022-09-12T18:05:17.401Z,100647.05
2022-09-12T18:07:47.614Z,100644.46
2022-09-12T18:10:18.065Z,100643.90
2022-09-12T18:12:52.174Z,100640.74
2022-09-12T18:15:22.660Z,100637.20
2022-09-12T18:17:52.871Z,100638.55
2022-09-12T18:20:23.804Z,100636.81
2022-09-12T18:22:54.082Z,100638.91
2022-09-12T18:25:24.517Z,100637.81
2022-09-12T18:27:54.627Z,100640.31
2022-09-12T18:30:24.813Z,100638.93
2022-09-12T18:32:55.762Z,100635.18
2022-09-12T18:35:25.892Z,100634.13
2022-09-12T18:37:56.451Z,100630.48
2022-09-12T18:40:26.927Z,100631.42
2022-09-12T18:42:58.071Z,100627.73
2022-09-12T18:45:29.050Z,100628.35
2022-09-12T18:47:59.714Z,100629.64
2022-09-12T18:50:30.696Z,100629.80
2022-09-12T18:53:04.236Z,100628.70
2022-09-12T18:55:35.068Z,100624.55
2022-09-12T18:58:05.973Z,100628.57
2022-09-12T19:00:36.967Z,100626.68
2022-09-12T19:03:08.837Z,100625.02
2022-09-12T19:05:40.485Z,100625.30
2022-09-12T19:08:12.600Z,100625.65
2022-09-12T19:10:43.989Z,100620.94
2022-09-12T19:13:18.221Z,100619.61
2022-09-12T19:15:49.021Z,100617.14
2022-09-12T19:18:19.903Z,100617.04
2022-09-12T19:20:54.802Z,100617.11
2022-09-12T19:23:26.060Z,100615.52
2022-09-12T19:26:04.290Z,100615.08
2022-09-12T19:28:35.330Z,100607.21
2022-09-12T19:31:08.893Z,100610.91
2022-09-12T19:33:39.091Z,100606.54
2022-09-12T19:36:34.070Z,100601.13
2022-09-12T19:39:04.519Z,100596.63
2022-09-12T19:41:34.853Z,100599.45
2022-09-12T19:44:05.565Z,100593.83
2022-09-12T19:46:35.798Z,100591.42
2022-09-12T19:49:06.211Z,100588.94
2022-09-12T19:51:36.389Z,100583.33
2022-09-12T19:54:07.771Z,100587.28
2022-09-12T19:56:38.258Z,100588.58
2022-09-12T19:59:08.735Z,100592.80
2022-09-12T20:01:39.014Z,100587.57
2022-09-12T20:04:09.888Z,100586.69
2022-09-12T20:06:40.047Z,100583.89
2022-09-12T20:09:10.918Z,100582.98
2022-09-12T20:11:41.230Z,100576.11
2022-09-12T20:14:12.891Z,100578.89
2022-09-12T20:16:45.545Z,100572.20
2022-09-12T20:19:15.758Z,100564.55
2022-09-12T20:21:46.073Z,100564.89
2022-09-12T20:24:16.990Z,100564.91
2022-09-12T20:26:47.790Z,100566.08
2022-09-12T20:29:18.045Z,100565.14
2022-09-12T20:31:49.326Z,100563.55
2022-09-12T20:34:21.662Z,100554.93
2022-09-12T20:36:51.853Z,100550.35
2022-09-12T20:39:24.074Z,100544.88
2022-09-12T20:41:54.339Z,100540.60
2022-09-12T20:44:24.781Z,100543.08
2022-09-12T20:46:55.358Z,100540.44
2022-09-12T20:49:26.234Z,100539.08
2022-09-12T20:51:56.485Z,100535.77
2022-09-12T20:54:26.939Z,100536.00
2022-09-12T20:56:57.116Z,100530.89
2022-09-12T20:59:27.435Z,100527.43
2022-09-12T21:01:58.194Z,100521.80
2022-09-12T21:04:28.817Z,100515.00
2022-09-12T21:06:59.893Z,100516.05
2022-09-12T21:09:30.008Z,100514.64
2022-09-12T21:12:00.601Z,100510.83
2022-09-12T21:14:30.701Z,100505.89
2022-09-12T21:17:00.825Z,100504.25
2022-09-12T21:19:31.306Z,100502.58
2022-09-12T21:22:01.692Z,100504.79
2022-09-12T21:24:32.065Z,100506.20
2022-09-12T21:27:04.337Z,100501.02
2022-09-12T21:29:34.875Z,100495.77
2022-09-12T21:32:06.006Z,100492.52
2022-09-12T21:34:36.632Z,100492.15
2022-09-12T21:37:06.816Z,100492.56
2022-09-12T21:39:37.319Z,100487.86
2022-09-12T21:42:08.032Z,100479.59
2022-09-12T21:44:38.438Z,100475.26
2022-09-12T21:47:09.314Z,100473.08
2022-09-12T21:49:39.982Z,100467.77
2022-09-12T21:52:12.595Z,100465.67
2022-09-12T21:54:42.686Z,100464.05
2022-09-12T21:57:12.794Z,100460.11
2022-09-12T21:59:42.967Z,100458.73
2022-09-12T22:02:13.852Z,100451.91
2022-09-12T22:04:44.430Z,100451.05
2022-09-12T22:07:14.578Z,100448.11
2022-09-12T22:09:44.870Z,100450.56
2022-09-12T22:12:15.073Z,100444.77
2022-09-12T22:14:46.747Z,100441.64
2022-09-12T22:17:17.387Z,100440.29
2022-09-12T22:19:47.862Z,100444.49
2022-09-12T22:22:46.946Z,100440.45
2022-09-12T22:25:17.141Z,100436.16
2022-09-12T22:27:47.267Z,100437.88
2022-09-12T22:30:17.602Z,100430.70
2022-09-12T22:32:49.747Z,100430.27
2022-09-12T22:35:20.976Z,100432.67
2022-09-12T22:37:51.207Z,100433.94
2022-09-12T22:40:21.468Z,100436.13
2022-09-12T22:42:54.046Z,100435.45
2022-09-12T22:45:24.429Z,100427.92
2022-09-12T22:47:55.702Z,100421.48
2022-09-12T22:50:28.667Z,100425.34
2022-09-12T22:52:59.099Z,100417.64
2022-09-12T22:55:29.325Z,100414.72
2022-09-12T22:57:59.538Z,100416.16
2022-09-12T23:00:29.881Z,100420.20
2022-09-12T23:03:00.161Z,100417.07
2022-09-12T23:05:30.701Z,100412.73
2022-09-12T23:08:00.824Z,100406.14
2022-09-12T23:10:31.022Z,100396.33
2022-09-12T23:13:01.190Z,100392.16
2022-09-12T23:15:31.626Z,100383.16
2022-09-12T23:18:03.926Z,100373.23
2022-09-12T23:20:35.191Z,100368.77
2022-09-12T23:23:05.607Z,100373.63
2022-09-12T23:25:35.802Z,100376.35
2022-09-12T23:28:05.970Z,100377.58
2022-09-12T23:30:38.071Z,100381.36
2022-09-12T23:33:08.216Z,100384.52
2022-09-12T23:35:38.512Z,100383.95
2022-09-12T23:38:12.591Z,100385.73
2022-09-12T23:40:44.629Z,100380.38
2022-09-12T23:43:15.070Z,100375.48
2022-09-12T23:45:45.327Z,100370.02
2022-09-12T23:48:16.038Z,100369.02
2022-09-12T23:50:47.898Z,100368.54
2022-09-12T23:53:20.012Z,100373.39
2022-09-12T23:55:50.177Z,100370.87
2022-09-12T23:58:21.631Z,100371.55
